Latest Coastal Weather Observations for Double Island Point

IDQ60701

Issued at 8:22 am EST Tuesday 27 September 2016 (issued every 10 minutes, with the page automatically refreshed every 10 minutes)

About coastal observations | Map of coastal stations | Coastal observations for QLD | Marine services | Other Formats
Station Details ID: 040068 Name: DOUBLE ISLAND POINT LIGHTHOUSE Lat: -25.93 Lon: 153.19 Height: 95.64 m
Data from the previous 72 hours. | See also: Recent months at Double Island Point
Date/Time
EST
Temp
°C
Wind Pressure Rain since
9am
mm
Weather Cloud Vis
km
Sea
Height
m
Swell
Dir  Spd
kts
Gust
kts
hPa Trend Height
m
Period
s
Dir
27/08:00am - WSW 6 10 1014.3 - 0.0 - - - - - - -
27/07:30am - WSW 10 15 1013.9 - 0.0 - - - - - - -
27/07:00am - SSW 12 17 1013.2 - 0.0 - - - - - - -
27/06:30am - SSW 11 13 1013.4 - 0.0 - - - - - - -
27/06:00am - SSW 10 12 1013.1 - 0.0 - - - - - - -
27/05:30am - SW 8 10 1012.7 - 0.0 - - - - - - -
27/05:00am - SW 11 14 1012.6 - 0.0 - - - - - - -
27/04:30am - SSW 14 17 1012.2 - 0.0 - - - - - - -
27/04:00am - SSW 12 15 1012.1 - 0.0 - - - - - - -
27/03:30am - SSW 12 14 1011.5 - 0.0 - - - - - - -
27/03:00am - SSW 13 17 1011.5 - 0.0 - - - - - - -
27/02:30am - SSW 17 22 1011.8 - 0.0 - - - - - - -
27/02:00am - WSW 12 17 1011.9 - 0.0 - - - - - - -
27/01:30am - W 12 16 1012.1 - 0.0 - - - - - - -
27/01:00am - WNW 14 17 1012.0 - 0.0 - - - - - - -
27/12:30am - WNW 13 17 1012.0 - 0.0 - - - - - - -
27/12:00am - WNW 14 18 1012.5 - 0.0 - - - - - - -
 
Date/Time
EST
Temp
°C
Wind Pressure Rain since
9am
mm
Weather Cloud Vis
km
Sea
Height
m
Swell
Dir  Spd
kts
Gust
kts
hPa Trend Height
m
Period
s
Dir
26/11:30pm - WNW 16 19 1012.5 - 0.0 - - - - - - -
26/11:00pm - NW 16 19 1012.9 - 0.0 - - - - - - -
26/10:30pm - WNW 15 19 1013.1 - 0.0 - - - - - - -
26/10:00pm - NW 13 15 1013.1 - 0.0 - - - - - - -
26/09:30pm - NW 11 13 1012.8 - 0.0 - - - - - - -
26/09:00pm - NNW 6 10 1012.6 - 0.0 - - - - - - -
26/08:30pm - N 4 6 1012.4 - 0.0 - - - - - - -
26/08:00pm - N 4 8 1012.1 - 0.0 - - - - - - -
26/07:30pm - N 7 11 1011.8 - 0.0 - - - - - - -
26/07:00pm - N 10 13 1011.6 - 0.0 - - - - - - -
26/06:30pm - N 11 14 1011.2 - 0.0 - - - - - - -
26/06:00pm - NNE 11 13 1011.0 - 0.0 - - - - - - -
26/05:30pm - NNE 8 12 1010.8 - 0.0 - - - - - - -
26/05:00pm - NE 8 11 1010.5 - 0.0 - - - - - - -
26/04:30pm - NE 9 11 1010.3 - 0.0 - - - - - - -
26/04:00pm - ENE 9 12 1010.0 - 0.0 - - - - - - -
26/03:30pm - ENE 9 11 1010.2 - 0.0 - - - - - - -
26/03:00pm - E 11 13 1010.0 - 0.0 - - - - - - -
26/02:30pm - E 12 14 1009.9 - 0.0 - - - - - - -
26/02:00pm - E 11 13 1010.3 - 0.0 - - - - - - -
26/01:30pm - ESE 11 13 1010.9 - 0.0 - - - - - - -
26/01:00pm - ESE 11 13 1011.3 - 0.0 - - - - - - -
26/12:30pm - SE 12 14 1011.9 - 0.0 - - - - - - -
26/12:00pm - SE 13 14 1012.0 - 0.0 - - - - - - -
26/11:30am - SE 13 15 1012.4 - 0.0 - - - - - - -
26/11:00am - SSE 15 19 1012.8 - 0.0 - - - - - - -
26/10:30am - SSE 15 20 1013.1 - 0.0 - - - - - - -
26/10:00am - S 17 21 1013.1 - 0.0 - - - - - - -
26/09:30am - S 18 21 1012.9 - 0.0 - - - - - - -
26/09:00am - S 18 23 1013.0 - 0.2 - - - - - - -
26/08:30am - S 16 21 1013.0 - 0.2 - - - - - - -
26/08:00am - S 17 24 1013.0 - 0.2 - - - - - - -
26/07:30am - SSW 17 26 1013.1 - 0.2 - - - - - - -
26/07:00am - SSW 16 21 1012.7 - 0.2 - - - - - - -
26/06:30am - SSW 12 15 1012.4 - 0.2 - - - - - - -
26/06:00am - S 8 11 1011.9 - 0.2 - - - - - - -
26/05:30am - S 10 15 1011.5 - 0.2 - - - - - - -
26/05:00am - SSW 10 13 1011.2 - 0.2 - - - - - - -
26/04:30am - SSW 12 16 1010.9 - 0.2 - - - - - - -
26/04:00am - SSW 15 20 1010.5 - 0.2 - - - - - - -
26/03:30am - SSW 14 18 1010.3 - 0.2 - - - - - - -
26/03:00am - SSW 15 18 1010.1 - 0.2 - - - - - - -
26/02:30am - SSW 18 22 1009.9 - 0.2 - - - - - - -
26/02:00am - SSW 16 23 1010.1 - 0.2 - - - - - - -
26/01:30am - SSW 18 21 1010.3 - 0.2 - - - - - - -
26/01:00am - SSW 14 16 1010.4 - 0.2 - - - - - - -
26/12:30am - SSW 12 15 1010.5 - 0.2 - - - - - - -
26/12:00am - S 12 15 1010.5 - 0.2 - - - - - - -
 
Date/Time
EST
Temp
°C
Wind Pressure Rain since
9am
mm
Weather Cloud Vis
km
Sea
Height
m
Swell
Dir  Spd
kts
Gust
kts
hPa Trend Height
m
Period
s
Dir
25/11:30pm - S 13 16 1010.4 - 0.2 - - - - - - -
25/11:00pm - S 12 13 1010.6 - 0.2 - - - - - - -
25/10:30pm - SSW 13 17 1010.5 - 0.2 - - - - - - -
25/10:00pm - SSW 13 16 1010.3 - 0.2 - - - - - - -
25/09:30pm - SW 12 16 1010.0 - 0.2 - - - - - - -
25/09:00pm - SW 11 17 1009.8 - 0.2 - - - - - - -
25/08:30pm - W 9 11 1009.6 - 0.2 - - - - - - -
25/08:00pm - WNW 11 13 1009.2 - 0.2 - - - - - - -
25/07:30pm - W 12 15 1008.6 - 0.2 - - - - - - -
25/07:00pm - NW 10 11 1007.9 - 0.2 - - - - - - -
25/06:30pm - NW 9 10 1007.5 - 0.2 - - - - - - -
25/06:00pm - NNW 7 9 1006.9 - 0.2 - - - - - - -
25/05:30pm - NNW 6 8 1006.4 - 0.2 - - - - - - -
25/05:00pm - NNE 6 8 1006.0 - 0.2 - - - - - - -
25/04:30pm - NE 7 10 1005.8 - 0.2 - - - - - - -
25/04:00pm - ENE 7 9 1005.7 - 0.2 - - - - - - -
25/03:30pm - NE 5 9 1005.8 - 0.2 - - - - - - -
25/03:00pm - NE 4 10 1005.7 - 0.2 - - - - - - -
25/02:30pm - NNE 10 14 1005.4 - 0.2 - - - - - - -
25/02:00pm - NNE 6 10 1005.4 - 0.2 - - - - - - -
25/01:30pm - N 6 9 1005.3 - 0.0 - - - - - - -
25/01:00pm - NNE 8 13 1005.9 - 0.0 - - - - - - -
25/12:30pm - NNE 8 12 1006.5 - 0.0 - - - - - - -
25/12:00pm - NNE 6 9 1007.0 - 0.0 - - - - - - -
25/11:30am - N 5 7 1007.9 - 0.0 - - - - - - -
25/11:00am - NW 3 7 1008.2 - 0.0 - - - - - - -
25/10:30am - S 4 7 1008.7 - 0.0 - - - - - - -
25/10:00am - NNW 6 9 1009.3 - 0.0 - - - - - - -
25/09:30am - WNW 10 13 1009.4 - 0.0 - - - - - - -
25/09:00am - NW 12 15 1009.7 - 0.0 - - - - - - -
25/08:30am - WNW 13 16 1009.7 - 0.0 - - - - - - -
25/08:00am - WNW 14 17 1010.0 - 0.0 - - - - - - -
25/07:30am - W 11 16 1010.0 - 0.0 - - - - - - -
25/07:00am - WNW 15 19 1009.7 - 0.0 - - - - - - -
25/06:30am - WNW 13 16 1009.1 - 0.0 - - - - - - -
25/06:00am - WNW 13 16 1008.7 - 0.0 - - - - - - -
25/05:30am - NW 9 11 1008.6 - 0.0 - - - - - - -
25/05:00am - NW 9 11 1008.4 - 0.0 - - - - - - -
25/04:30am - NW 10 12 1008.0 - 0.0 - - - - - - -
25/04:00am - NW 10 11 1008.0 - 0.0 - - - - - - -
25/03:30am - NW 9 11 1008.1 - 0.0 - - - - - - -
25/03:00am - NW 8 11 1008.3 - 0.0 - - - - - - -
25/02:30am - NNW 7 9 1008.5 - 0.0 - - - - - - -
25/02:00am - NNW 4 7 1008.5 - 0.0 - - - - - - -
25/01:30am - NNW 8 11 1008.8 - 0.0 - - - - - - -
25/01:00am - NNW 8 11 1008.9 - 0.0 - - - - - - -
25/12:30am - NNW 5 8 1009.2 - 0.0 - - - - - - -
25/12:00am - NNW 5 9 1009.4 - 0.0 - - - - - - -
 
Date/Time
EST
Temp
°C
Wind Pressure Rain since
9am
mm
Weather Cloud Vis
km
Sea
Height
m
Swell
Dir  Spd
kts
Gust
kts
hPa Trend Height
m
Period
s
Dir
24/11:30pm - NNW 4 6 1009.4 - 0.0 - - - - - - -
24/11:00pm - NNW 5 8 1009.9 - 0.0 - - - - - - -
24/10:30pm - NNW 6 9 1010.2 - 0.0 - - - - - - -
24/10:00pm - NNW 9 11 1010.5 - 0.0 - - - - - - -
24/09:30pm - NNW 9 11 1010.7 - 0.0 - - - - - - -
24/09:00pm - NNW 10 13 1010.8 - 0.0 - - - - - - -
24/08:30pm - NNW 9 11 1010.7 - 0.0 - - - - - - -
24/08:00pm - NNW 10 13 1010.3 - 0.0 - - - - - - -
24/07:30pm - NNW 11 15 1009.9 - 0.0 - - - - - - -
24/07:00pm - NNW 8 10 1009.6 - 0.0 - - - - - - -
24/06:30pm - N 7 10 1009.1 - 0.0 - - - - - - -
24/06:00pm - NNE 11 14 1008.7 - 0.0 - - - - - - -
24/05:30pm - NNE 10 15 1008.2 - 0.0 - - - - - - -
24/05:00pm - NE 7 11 1008.1 - 0.0 - - - - - - -
24/04:30pm - NNE 6 10 1008.0 - 0.0 - - - - - - -
24/04:00pm - NNE 8 13 1007.9 - 0.0 - - - - - - -
24/03:30pm - NNE 14 19 1007.8 - 0.0 - - - - - - -
24/03:00pm - NNE 16 19 1008.0 - 0.0 - - - - - - -
24/02:30pm - NNE 15 18 1008.3 - 0.0 - - - - - - -
24/02:00pm - NNE 12 15 1008.8 - 0.0 - - - - - - -
24/01:30pm - NNE 13 18 1009.1 - 0.0 - - - - - - -
24/01:00pm - N 5 10 1009.8 - 0.0 - - - - - - -
24/12:30pm - N 4 6 1010.2 - 0.0 - - - - - - -
24/12:00pm - N 5 7 1010.6 - 0.0 - - - - - - -
24/11:30am - NNW 6 10 1011.2 - 0.0 - - - - - - -
24/11:00am - NNW 5 8 1011.9 - 0.0 - - - - - - -
24/10:30am - NNW 5 8 1012.2 - 0.0 - - - - - - -
24/10:00am - NNW 7 10 1012.5 - 0.0 - - - - - - -
24/09:30am - NW 8 10 1012.9 - 0.0 - - - - - - -
24/09:00am - WNW 11 13 1013.1 - 0.0 - - - - - - -
24/08:30am - WNW 11 13 1013.2 - 0.0 - - - - - - -

Other Formats:

Comma delimited format used in spreadsheet applications
http://www.bom.gov.au/fwo/IDQ60701/IDQ60701.94584.axf

JavaScript Object Notation format (JSON) in row-major order
http://www.bom.gov.au/fwo/IDQ60701/IDQ60701.94584.json